Asheboro, North Carolina
Current Conditions -  °F | °C
As of 5:15 AM on Saturday 22 Nov 2014 (Local Time) from KHBI Reporting Station
Clear Clear  
Wind Chill: 24°   Ceiling: Unl
Heat Index: 24°   Visibility: 10mi
Dew Point: 17°   Wind: 0mph
Humidity: 73%   Direction: NA
Pressure: 30.56"   Gusts: NA
Location:  35.71°N, 79.81°W
Report Text: KHBI 221015Z AUTO 00000KT 10SM CLR M04/M08 A3056 RMK AO2 T10431084
Loading
Personal Weather Stations






























Interactive Weather Map New forecast layout! Learn more

10-Day Weather Forecast

Advertisements
Track Severe Weather on mobile